sensor_id;sensor_type;location;lat;lon;timestamp;pressure;altitude;pressure_sealevel;temperature
14851;BMP180;7517;48.400;11.770;2022-09-29T00:02:12;95018.00;;;13.90
14851;BMP180;7517;48.400;11.770;2022-09-29T00:04:39;95024.00;;;13.80
14851;BMP180;7517;48.400;11.770;2022-09-29T00:07:06;95019.00;;;13.80
14851;BMP180;7517;48.400;11.770;2022-09-29T00:09:35;95018.00;;;13.80
14851;BMP180;7517;48.400;11.770;2022-09-29T00:12:03;95021.00;;;13.80
14851;BMP180;7517;48.400;11.770;2022-09-29T00:14:36;95023.00;;;13.70
14851;BMP180;7517;48.400;11.770;2022-09-29T00:17:05;95024.00;;;13.70
14851;BMP180;7517;48.400;11.770;2022-09-29T00:19:36;95020.00;;;13.60
14851;BMP180;7517;48.400;11.770;2022-09-29T00:22:04;95024.00;;;13.60
14851;BMP180;7517;48.400;11.770;2022-09-29T00:24:33;95027.00;;;13.50
14851;BMP180;7517;48.400;11.770;2022-09-29T00:27:04;95018.00;;;13.50
14851;BMP180;7517;48.400;11.770;2022-09-29T00:29:31;95020.00;;;13.50
14851;BMP180;7517;48.400;11.770;2022-09-29T00:31:58;95017.00;;;13.40
14851;BMP180;7517;48.400;11.770;2022-09-29T00:34:27;95006.00;;;13.40
14851;BMP180;7517;48.400;11.770;2022-09-29T00:36:55;95015.00;;;13.40
14851;BMP180;7517;48.400;11.770;2022-09-29T00:39:22;95009.00;;;13.40
14851;BMP180;7517;48.400;11.770;2022-09-29T00:41:50;95005.00;;;13.30
14851;BMP180;7517;48.400;11.770;2022-09-29T00:45:00;95009.00;;;13.30
14851;BMP180;7517;48.400;11.770;2022-09-29T00:47:31;95007.00;;;13.20
14851;BMP180;7517;48.400;11.770;2022-09-29T00:50:10;95001.00;;;13.20
14851;BMP180;7517;48.400;11.770;2022-09-29T00:52:42;95007.00;;;13.20
14851;BMP180;7517;48.400;11.770;2022-09-29T00:55:19;95003.00;;;13.20
14851;BMP180;7517;48.400;11.770;2022-09-29T00:57:51;95002.00;;;13.20
14851;BMP180;7517;48.400;11.770;2022-09-29T01:00:20;95015.00;;;13.20
14851;BMP180;7517;48.400;11.770;2022-09-29T01:02:59;95013.00;;;13.20
14851;BMP180;7517;48.400;11.770;2022-09-29T01:05:46;94996.00;;;13.10
14851;BMP180;7517;48.400;11.770;2022-09-29T01:08:22;94995.00;;;13.10
14851;BMP180;7517;48.400;11.770;2022-09-29T01:10:52;94991.00;;;13.00
14851;BMP180;7517;48.400;11.770;2022-09-29T01:13:20;94984.00;;;13.00
14851;BMP180;7517;48.400;11.770;2022-09-29T01:15:48;94983.00;;;12.90
14851;BMP180;7517;48.400;11.770;2022-09-29T01:18:15;94977.00;;;12.90
14851;BMP180;7517;48.400;11.770;2022-09-29T01:20:56;94975.00;;;12.90
14851;BMP180;7517;48.400;11.770;2022-09-29T01:27:14;94974.00;;;12.90
14851;BMP180;7517;48.400;11.770;2022-09-29T01:30:17;94975.00;;;12.90
14851;BMP180;7517;48.400;11.770;2022-09-29T01:33:18;94972.00;;;12.90
14851;BMP180;7517;48.400;11.770;2022-09-29T01:36:02;94969.00;;;12.90
14851;BMP180;7517;48.400;11.770;2022-09-29T01:38:49;94978.00;;;12.90
14851;BMP180;7517;48.400;11.770;2022-09-29T01:41:29;94976.00;;;12.90
14851;BMP180;7517;48.400;11.770;2022-09-29T01:44:11;94985.00;;;12.90
14851;BMP180;7517;48.400;11.770;2022-09-29T01:46:46;94979.00;;;12.90
14851;BMP180;7517;48.400;11.770;2022-09-29T01:49:18;94973.00;;;12.90
14851;BMP180;7517;48.400;11.770;2022-09-29T01:51:54;94981.00;;;12.90
14851;BMP180;7517;48.400;11.770;2022-09-29T01:54:31;94973.00;;;12.90
14851;BMP180;7517;48.400;11.770;2022-09-29T01:57:06;94977.00;;;12.90
14851;BMP180;7517;48.400;11.770;2022-09-29T01:59:43;94972.00;;;12.90
14851;BMP180;7517;48.400;11.770;2022-09-29T02:02:16;94965.00;;;12.90
14851;BMP180;7517;48.400;11.770;2022-09-29T02:04:52;94978.00;;;13.00
14851;BMP180;7517;48.400;11.770;2022-09-29T02:07:24;94974.00;;;13.00
14851;BMP180;7517;48.400;11.770;2022-09-29T02:10:00;94977.00;;;13.00
14851;BMP180;7517;48.400;11.770;2022-09-29T02:12:32;94973.00;;;13.00
14851;BMP180;7517;48.400;11.770;2022-09-29T02:15:05;94973.00;;;13.00
14851;BMP180;7517;48.400;11.770;2022-09-29T02:17:38;94974.00;;;13.00
14851;BMP180;7517;48.400;11.770;2022-09-29T02:20:11;94976.00;;;13.10
14851;BMP180;7517;48.400;11.770;2022-09-29T02:22:40;94972.00;;;13.10
14851;BMP180;7517;48.400;11.770;2022-09-29T02:25:12;94974.00;;;13.00
14851;BMP180;7517;48.400;11.770;2022-09-29T02:27:46;94970.00;;;13.10
14851;BMP180;7517;48.400;11.770;2022-09-29T02:30:16;94965.00;;;13.10
14851;BMP180;7517;48.400;11.770;2022-09-29T02:32:46;94970.00;;;13.10
14851;BMP180;7517;48.400;11.770;2022-09-29T02:35:15;94974.00;;;13.10
14851;BMP180;7517;48.400;11.770;2022-09-29T02:38:03;94977.00;;;13.10
14851;BMP180;7517;48.400;11.770;2022-09-29T02:40:46;94983.00;;;13.10
14851;BMP180;7517;48.400;11.770;2022-09-29T02:43:38;94982.00;;;13.10
14851;BMP180;7517;48.400;11.770;2022-09-29T02:46:25;94977.00;;;13.10
14851;BMP180;7517;48.400;11.770;2022-09-29T02:49:27;94979.00;;;13.10
14851;BMP180;7517;48.400;11.770;2022-09-29T02:52:09;94975.00;;;13.20
14851;BMP180;7517;48.400;11.770;2022-09-29T02:55:04;94972.00;;;13.20
14851;BMP180;7517;48.400;11.770;2022-09-29T02:57:43;94972.00;;;13.20
14851;BMP180;7517;48.400;11.770;2022-09-29T03:00:25;94980.00;;;13.20
14851;BMP180;7517;48.400;11.770;2022-09-29T03:03:09;94984.00;;;13.20
14851;BMP180;7517;48.400;11.770;2022-09-29T03:05:56;94978.00;;;13.20
14851;BMP180;7517;48.400;11.770;2022-09-29T03:08:25;94971.00;;;13.20
14851;BMP180;7517;48.400;11.770;2022-09-29T03:10:55;94971.00;;;13.20
14851;BMP180;7517;48.400;11.770;2022-09-29T03:13:23;94963.00;;;13.20
14851;BMP180;7517;48.400;11.770;2022-09-29T03:15:52;94974.00;;;13.20
14851;BMP180;7517;48.400;11.770;2022-09-29T03:18:28;94974.00;;;13.30
14851;BMP180;7517;48.400;11.770;2022-09-29T03:21:05;94971.00;;;13.30
14851;BMP180;7517;48.400;11.770;2022-09-29T03:23:37;94976.00;;;13.30
14851;BMP180;7517;48.400;11.770;2022-09-29T03:26:05;94967.00;;;13.30
14851;BMP180;7517;48.400;11.770;2022-09-29T03:28:32;94968.00;;;13.30
14851;BMP180;7517;48.400;11.770;2022-09-29T03:31:04;94953.00;;;13.30
14851;BMP180;7517;48.400;11.770;2022-09-29T03:33:36;94953.00;;;13.30
14851;BMP180;7517;48.400;11.770;2022-09-29T03:36:05;94960.00;;;13.30
14851;BMP180;7517;48.400;11.770;2022-09-29T03:38:35;94957.00;;;13.30
14851;BMP180;7517;48.400;11.770;2022-09-29T03:41:03;94956.00;;;13.30
14851;BMP180;7517;48.400;11.770;2022-09-29T03:43:31;94959.00;;;13.30
14851;BMP180;7517;48.400;11.770;2022-09-29T03:46:07;94963.00;;;13.30
14851;BMP180;7517;48.400;11.770;2022-09-29T03:48:43;94962.00;;;13.20
14851;BMP180;7517;48.400;11.770;2022-09-29T03:51:10;94961.00;;;13.20
14851;BMP180;7517;48.400;11.770;2022-09-29T03:53:41;94964.00;;;13.20
14851;BMP180;7517;48.400;11.770;2022-09-29T03:56:31;94956.00;;;13.10
14851;BMP180;7517;48.400;11.770;2022-09-29T03:59:00;94953.00;;;13.10
14851;BMP180;7517;48.400;11.770;2022-09-29T04:01:32;94946.00;;;13.10
14851;BMP180;7517;48.400;11.770;2022-09-29T04:04:00;94940.00;;;13.10
14851;BMP180;7517;48.400;11.770;2022-09-29T04:06:27;94946.00;;;13.00
14851;BMP180;7517;48.400;11.770;2022-09-29T04:08:56;94949.00;;;13.00
14851;BMP180;7517;48.400;11.770;2022-09-29T04:11:23;94949.00;;;13.00
14851;BMP180;7517;48.400;11.770;2022-09-29T04:13:50;94951.00;;;13.00
14851;BMP180;7517;48.400;11.770;2022-09-29T04:16:17;94951.00;;;13.00
14851;BMP180;7517;48.400;11.770;2022-09-29T04:18:47;94954.00;;;13.00
14851;BMP180;7517;48.400;11.770;2022-09-29T04:21:14;94949.00;;;13.00
14851;BMP180;7517;48.400;11.770;2022-09-29T04:23:45;94954.00;;;13.00
14851;BMP180;7517;48.400;11.770;2022-09-29T04:26:17;94959.00;;;13.00
14851;BMP180;7517;48.400;11.770;2022-09-29T04:28:45;94966.00;;;13.00
14851;BMP180;7517;48.400;11.770;2022-09-29T04:31:13;94966.00;;;13.00
14851;BMP180;7517;48.400;11.770;2022-09-29T04:33:40;94964.00;;;13.00
14851;BMP180;7517;48.400;11.770;2022-09-29T04:36:07;94965.00;;;13.00
14851;BMP180;7517;48.400;11.770;2022-09-29T04:38:35;94972.00;;;13.00
14851;BMP180;7517;48.400;11.770;2022-09-29T04:41:02;94974.00;;;13.00
14851;BMP180;7517;48.400;11.770;2022-09-29T04:43:31;94978.00;;;13.00
14851;BMP180;7517;48.400;11.770;2022-09-29T04:46:04;94975.00;;;13.00
14851;BMP180;7517;48.400;11.770;2022-09-29T04:48:33;94974.00;;;13.00
14851;BMP180;7517;48.400;11.770;2022-09-29T04:51:01;94974.00;;;13.00
14851;BMP180;7517;48.400;11.770;2022-09-29T04:53:29;94971.00;;;13.10
14851;BMP180;7517;48.400;11.770;2022-09-29T04:55:57;94973.00;;;13.10
14851;BMP180;7517;48.400;11.770;2022-09-29T04:58:24;94970.00;;;13.10
14851;BMP180;7517;48.400;11.770;2022-09-29T05:00:54;94970.00;;;13.10
14851;BMP180;7517;48.400;11.770;2022-09-29T05:03:21;94971.00;;;13.10
14851;BMP180;7517;48.400;11.770;2022-09-29T05:05:54;94964.00;;;13.10
14851;BMP180;7517;48.400;11.770;2022-09-29T05:08:23;94970.00;;;13.10
14851;BMP180;7517;48.400;11.770;2022-09-29T05:10:53;94970.00;;;13.20
14851;BMP180;7517;48.400;11.770;2022-09-29T05:13:23;94970.00;;;13.20
14851;BMP180;7517;48.400;11.770;2022-09-29T05:15:56;94965.00;;;13.20
14851;BMP180;7517;48.400;11.770;2022-09-29T05:18:26;94950.00;;;13.20
14851;BMP180;7517;48.400;11.770;2022-09-29T05:20:54;94959.00;;;13.20
14851;BMP180;7517;48.400;11.770;2022-09-29T05:23:22;94957.00;;;13.20
14851;BMP180;7517;48.400;11.770;2022-09-29T05:25:49;94962.00;;;13.30
14851;BMP180;7517;48.400;11.770;2022-09-29T05:28:16;94961.00;;;13.30
14851;BMP180;7517;48.400;11.770;2022-09-29T05:30:45;94964.00;;;13.30
14851;BMP180;7517;48.400;11.770;2022-09-29T05:33:14;94960.00;;;13.40
14851;BMP180;7517;48.400;11.770;2022-09-29T05:35:42;94955.00;;;13.40
14851;BMP180;7517;48.400;11.770;2022-09-29T05:38:11;94961.00;;;13.40
14851;BMP180;7517;48.400;11.770;2022-09-29T05:40:38;94954.00;;;13.40
14851;BMP180;7517;48.400;11.770;2022-09-29T05:43:08;94953.00;;;13.40
14851;BMP180;7517;48.400;11.770;2022-09-29T05:45:36;94948.00;;;13.40
14851;BMP180;7517;48.400;11.770;2022-09-29T05:48:06;94947.00;;;13.40
14851;BMP180;7517;48.400;11.770;2022-09-29T05:50:35;94956.00;;;13.40
14851;BMP180;7517;48.400;11.770;2022-09-29T05:53:06;94942.00;;;13.40
14851;BMP180;7517;48.400;11.770;2022-09-29T05:55:35;94945.00;;;13.40
14851;BMP180;7517;48.400;11.770;2022-09-29T05:58:02;94953.00;;;13.40
14851;BMP180;7517;48.400;11.770;2022-09-29T06:00:30;94947.00;;;13.40
14851;BMP180;7517;48.400;11.770;2022-09-29T06:02:58;94946.00;;;13.50
14851;BMP180;7517;48.400;11.770;2022-09-29T06:05:26;94951.00;;;13.50
14851;BMP180;7517;48.400;11.770;2022-09-29T06:07:55;94942.00;;;13.50
14851;BMP180;7517;48.400;11.770;2022-09-29T06:10:22;94958.00;;;13.50
14851;BMP180;7517;48.400;11.770;2022-09-29T06:12:50;94956.00;;;13.50
14851;BMP180;7517;48.400;11.770;2022-09-29T06:15:17;94958.00;;;13.50
14851;BMP180;7517;48.400;11.770;2022-09-29T06:17:44;94967.00;;;13.50
14851;BMP180;7517;48.400;11.770;2022-09-29T06:20:11;94956.00;;;13.60
14851;BMP180;7517;48.400;11.770;2022-09-29T06:22:38;94953.00;;;13.60
14851;BMP180;7517;48.400;11.770;2022-09-29T06:25:08;94952.00;;;13.60
14851;BMP180;7517;48.400;11.770;2022-09-29T06:27:35;94952.00;;;13.60
14851;BMP180;7517;48.400;11.770;2022-09-29T06:30:03;94961.00;;;13.70
14851;BMP180;7517;48.400;11.770;2022-09-29T06:32:30;94956.00;;;13.70
14851;BMP180;7517;48.400;11.770;2022-09-29T06:34:59;94962.00;;;13.70
14851;BMP180;7517;48.400;11.770;2022-09-29T06:37:44;94968.00;;;13.80
14851;BMP180;7517;48.400;11.770;2022-09-29T06:40:13;94959.00;;;13.80
14851;BMP180;7517;48.400;11.770;2022-09-29T06:42:40;94957.00;;;13.90
14851;BMP180;7517;48.400;11.770;2022-09-29T06:45:10;94957.00;;;13.90
14851;BMP180;7517;48.400;11.770;2022-09-29T06:47:37;94954.00;;;14.00
14851;BMP180;7517;48.400;11.770;2022-09-29T06:50:05;94959.00;;;14.00
14851;BMP180;7517;48.400;11.770;2022-09-29T06:52:34;94957.00;;;14.00
14851;BMP180;7517;48.400;11.770;2022-09-29T06:55:02;94968.00;;;14.10
14851;BMP180;7517;48.400;11.770;2022-09-29T06:57:30;94966.00;;;14.10
14851;BMP180;7517;48.400;11.770;2022-09-29T06:59:57;94962.00;;;14.20
14851;BMP180;7517;48.400;11.770;2022-09-29T07:02:25;94968.00;;;14.20
14851;BMP180;7517;48.400;11.770;2022-09-29T07:04:53;94977.00;;;14.20
14851;BMP180;7517;48.400;11.770;2022-09-29T07:07:24;94975.00;;;14.20
14851;BMP180;7517;48.400;11.770;2022-09-29T07:09:51;94978.00;;;14.30
14851;BMP180;7517;48.400;11.770;2022-09-29T07:12:18;94979.00;;;14.30
14851;BMP180;7517;48.400;11.770;2022-09-29T07:14:47;94984.00;;;14.40
14851;BMP180;7517;48.400;11.770;2022-09-29T07:17:16;94985.00;;;14.40
14851;BMP180;7517;48.400;11.770;2022-09-29T07:19:44;94989.00;;;14.40
14851;BMP180;7517;48.400;11.770;2022-09-29T07:22:11;94989.00;;;14.50
14851;BMP180;7517;48.400;11.770;2022-09-29T07:24:39;94989.00;;;14.50
14851;BMP180;7517;48.400;11.770;2022-09-29T07:27:08;94999.00;;;14.60
14851;BMP180;7517;48.400;11.770;2022-09-29T07:29:35;95005.00;;;14.60
14851;BMP180;7517;48.400;11.770;2022-09-29T07:32:07;95002.00;;;14.70
14851;BMP180;7517;48.400;11.770;2022-09-29T07:34:34;95004.00;;;14.70
14851;BMP180;7517;48.400;11.770;2022-09-29T07:37:01;95007.00;;;14.80
14851;BMP180;7517;48.400;11.770;2022-09-29T07:39:28;95004.00;;;14.80
14851;BMP180;7517;48.400;11.770;2022-09-29T07:41:57;95006.00;;;14.80
14851;BMP180;7517;48.400;11.770;2022-09-29T07:44:38;95005.00;;;14.90
14851;BMP180;7517;48.400;11.770;2022-09-29T07:47:07;95004.00;;;15.00
14851;BMP180;7517;48.400;11.770;2022-09-29T07:49:34;95000.00;;;15.00
14851;BMP180;7517;48.400;11.770;2022-09-29T07:52:01;95002.00;;;15.10
14851;BMP180;7517;48.400;11.770;2022-09-29T07:54:29;95010.00;;;15.20
14851;BMP180;7517;48.400;11.770;2022-09-29T07:56:57;95010.00;;;15.20
14851;BMP180;7517;48.400;11.770;2022-09-29T07:59:27;95006.00;;;15.30
14851;BMP180;7517;48.400;11.770;2022-09-29T08:01:54;95012.00;;;15.40
14851;BMP180;7517;48.400;11.770;2022-09-29T08:04:23;95023.00;;;15.40
14851;BMP180;7517;48.400;11.770;2022-09-29T08:06:50;95024.00;;;15.50
14851;BMP180;7517;48.400;11.770;2022-09-29T08:09:18;95023.00;;;15.60
14851;BMP180;7517;48.400;11.770;2022-09-29T08:11:45;95028.00;;;15.60
14851;BMP180;7517;48.400;11.770;2022-09-29T08:14:39;95031.00;;;15.70
14851;BMP180;7517;48.400;11.770;2022-09-29T08:17:17;95030.00;;;15.80
14851;BMP180;7517;48.400;11.770;2022-09-29T08:19:45;95029.00;;;15.80
14851;BMP180;7517;48.400;11.770;2022-09-29T08:22:13;95035.00;;;15.90
14851;BMP180;7517;48.400;11.770;2022-09-29T08:24:40;95023.00;;;16.00
14851;BMP180;7517;48.400;11.770;2022-09-29T08:27:07;95033.00;;;16.10
14851;BMP180;7517;48.400;11.770;2022-09-29T08:29:52;95039.00;;;16.10
14851;BMP180;7517;48.400;11.770;2022-09-29T08:32:32;95032.00;;;16.20
14851;BMP180;7517;48.400;11.770;2022-09-29T08:35:01;95033.00;;;16.20
14851;BMP180;7517;48.400;11.770;2022-09-29T08:37:28;95027.00;;;16.30
14851;BMP180;7517;48.400;11.770;2022-09-29T08:39:56;95036.00;;;16.30
14851;BMP180;7517;48.400;11.770;2022-09-29T08:42:30;95034.00;;;16.30
14851;BMP180;7517;48.400;11.770;2022-09-29T08:45:05;95041.00;;;16.40
14851;BMP180;7517;48.400;11.770;2022-09-29T08:47:38;95032.00;;;16.40
14851;BMP180;7517;48.400;11.770;2022-09-29T08:50:18;95033.00;;;16.50
14851;BMP180;7517;48.400;11.770;2022-09-29T08:52:53;95033.00;;;16.50
14851;BMP180;7517;48.400;11.770;2022-09-29T08:55:29;95030.00;;;16.50
14851;BMP180;7517;48.400;11.770;2022-09-29T08:58:01;95024.00;;;16.60
14851;BMP180;7517;48.400;11.770;2022-09-29T09:00:39;95019.00;;;16.60
14851;BMP180;7517;48.400;11.770;2022-09-29T09:03:45;95020.00;;;16.70
14851;BMP180;7517;48.400;11.770;2022-09-29T09:06:34;95026.00;;;16.70
14851;BMP180;7517;48.400;11.770;2022-09-29T09:12:50;95023.00;;;16.80
14851;BMP180;7517;48.400;11.770;2022-09-29T09:15:39;95041.00;;;16.80
14851;BMP180;7517;48.400;11.770;2022-09-29T09:18:30;95032.00;;;16.90
14851;BMP180;7517;48.400;11.770;2022-09-29T09:21:05;95034.00;;;17.00
14851;BMP180;7517;48.400;11.770;2022-09-29T09:23:52;95036.00;;;17.10
14851;BMP180;7517;48.400;11.770;2022-09-29T09:26:31;95028.00;;;17.10
14851;BMP180;7517;48.400;11.770;2022-09-29T09:29:03;95032.00;;;17.10
14851;BMP180;7517;48.400;11.770;2022-09-29T09:31:38;95034.00;;;17.20
14851;BMP180;7517;48.400;11.770;2022-09-29T09:34:15;95042.00;;;17.20
14851;BMP180;7517;48.400;11.770;2022-09-29T09:36:49;95040.00;;;17.20
14851;BMP180;7517;48.400;11.770;2022-09-29T09:39:26;95038.00;;;17.30
14851;BMP180;7517;48.400;11.770;2022-09-29T09:41:58;95033.00;;;17.30
14851;BMP180;7517;48.400;11.770;2022-09-29T09:44:33;95032.00;;;17.30
14851;BMP180;7517;48.400;11.770;2022-09-29T09:47:11;95037.00;;;17.30
14851;BMP180;7517;48.400;11.770;2022-09-29T09:49:46;95042.00;;;17.30
14851;BMP180;7517;48.400;11.770;2022-09-29T09:52:22;95032.00;;;17.40
14851;BMP180;7517;48.400;11.770;2022-09-29T09:54:56;95049.00;;;17.30
14851;BMP180;7517;48.400;11.770;2022-09-29T10:00:42;95047.00;;;17.30
14851;BMP180;7517;48.400;11.770;2022-09-29T10:03:11;95045.00;;;17.30
14851;BMP180;7517;48.400;11.770;2022-09-29T10:05:44;95043.00;;;17.20
14851;BMP180;7517;48.400;11.770;2022-09-29T10:08:19;95048.00;;;17.20
14851;BMP180;7517;48.400;11.770;2022-09-29T10:10:51;95052.00;;;17.20
14851;BMP180;7517;48.400;11.770;2022-09-29T10:13:19;95046.00;;;17.20
14851;BMP180;7517;48.400;11.770;2022-09-29T10:15:53;95055.00;;;17.30
14851;BMP180;7517;48.400;11.770;2022-09-29T10:18:27;95052.00;;;17.30
14851;BMP180;7517;48.400;11.770;2022-09-29T10:20:55;95056.00;;;17.30
14851;BMP180;7517;48.400;11.770;2022-09-29T10:23:29;95054.00;;;17.20
14851;BMP180;7517;48.400;11.770;2022-09-29T10:26:08;95057.00;;;17.20
14851;BMP180;7517;48.400;11.770;2022-09-29T10:28:43;95065.00;;;17.20
14851;BMP180;7517;48.400;11.770;2022-09-29T10:31:21;95057.00;;;17.20
14851;BMP180;7517;48.400;11.770;2022-09-29T10:33:54;95061.00;;;17.10
14851;BMP180;7517;48.400;11.770;2022-09-29T10:36:24;95059.00;;;17.10
14851;BMP180;7517;48.400;11.770;2022-09-29T10:38:53;95065.00;;;17.10
14851;BMP180;7517;48.400;11.770;2022-09-29T10:41:22;95068.00;;;17.00
14851;BMP180;7517;48.400;11.770;2022-09-29T10:43:50;95068.00;;;17.00
14851;BMP180;7517;48.400;11.770;2022-09-29T10:46:48;95071.00;;;17.00
14851;BMP180;7517;48.400;11.770;2022-09-29T10:49:18;95067.00;;;17.00
14851;BMP180;7517;48.400;11.770;2022-09-29T10:51:58;95082.00;;;17.00
14851;BMP180;7517;48.400;11.770;2022-09-29T10:54:29;95080.00;;;17.00
14851;BMP180;7517;48.400;11.770;2022-09-29T10:57:10;95078.00;;;17.00
14851;BMP180;7517;48.400;11.770;2022-09-29T10:59:48;95072.00;;;17.00
14851;BMP180;7517;48.400;11.770;2022-09-29T11:02:24;95078.00;;;17.00
14851;BMP180;7517;48.400;11.770;2022-09-29T11:04:59;95086.00;;;17.00
14851;BMP180;7517;48.400;11.770;2022-09-29T11:07:28;95079.00;;;17.00
14851;BMP180;7517;48.400;11.770;2022-09-29T11:09:56;95089.00;;;17.00
14851;BMP180;7517;48.400;11.770;2022-09-29T11:12:32;95084.00;;;17.00
14851;BMP180;7517;48.400;11.770;2022-09-29T11:15:01;95085.00;;;17.00
14851;BMP180;7517;48.400;11.770;2022-09-29T11:17:49;95079.00;;;17.00
14851;BMP180;7517;48.400;11.770;2022-09-29T11:20:17;95082.00;;;17.00
14851;BMP180;7517;48.400;11.770;2022-09-29T11:23:08;95084.00;;;17.00
14851;BMP180;7517;48.400;11.770;2022-09-29T11:26:19;95094.00;;;17.00
14851;BMP180;7517;48.400;11.770;2022-09-29T11:29:13;95091.00;;;17.00
14851;BMP180;7517;48.400;11.770;2022-09-29T11:32:20;95091.00;;;16.90
14851;BMP180;7517;48.400;11.770;2022-09-29T11:35:17;95089.00;;;16.90
14851;BMP180;7517;48.400;11.770;2022-09-29T11:41:05;95089.00;;;16.80
14851;BMP180;7517;48.400;11.770;2022-09-29T11:43:53;95088.00;;;16.80
14851;BMP180;7517;48.400;11.770;2022-09-29T11:46:47;95084.00;;;16.80
14851;BMP180;7517;48.400;11.770;2022-09-29T11:49:45;95089.00;;;16.80
14851;BMP180;7517;48.400;11.770;2022-09-29T11:52:56;95086.00;;;16.90
14851;BMP180;7517;48.400;11.770;2022-09-29T11:55:45;95093.00;;;16.80
14851;BMP180;7517;48.400;11.770;2022-09-29T11:58:31;95096.00;;;16.90
14851;BMP180;7517;48.400;11.770;2022-09-29T12:01:18;95101.00;;;16.90
14851;BMP180;7517;48.400;11.770;2022-09-29T12:04:02;95096.00;;;16.90
14851;BMP180;7517;48.400;11.770;2022-09-29T12:06:53;95095.00;;;16.90
14851;BMP180;7517;48.400;11.770;2022-09-29T12:09:55;95102.00;;;16.90
14851;BMP180;7517;48.400;11.770;2022-09-29T12:12:36;95104.00;;;16.90
14851;BMP180;7517;48.400;11.770;2022-09-29T12:15:23;95097.00;;;16.90
14851;BMP180;7517;48.400;11.770;2022-09-29T12:17:57;95100.00;;;16.90
14851;BMP180;7517;48.400;11.770;2022-09-29T12:20:37;95099.00;;;16.90
14851;BMP180;7517;48.400;11.770;2022-09-29T12:23:15;95103.00;;;16.90
14851;BMP180;7517;48.400;11.770;2022-09-29T12:25:54;95100.00;;;16.90
14851;BMP180;7517;48.400;11.770;2022-09-29T12:28:31;95091.00;;;16.90
14851;BMP180;7517;48.400;11.770;2022-09-29T12:31:09;95098.00;;;17.00
14851;BMP180;7517;48.400;11.770;2022-09-29T12:33:41;95100.00;;;17.00
14851;BMP180;7517;48.400;11.770;2022-09-29T12:36:41;95098.00;;;17.00
14851;BMP180;7517;48.400;11.770;2022-09-29T12:39:26;95101.00;;;17.00
14851;BMP180;7517;48.400;11.770;2022-09-29T12:42:16;95105.00;;;17.10
14851;BMP180;7517;48.400;11.770;2022-09-29T12:44:52;95110.00;;;17.10
14851;BMP180;7517;48.400;11.770;2022-09-29T12:47:30;95098.00;;;17.20
14851;BMP180;7517;48.400;11.770;2022-09-29T12:50:10;95106.00;;;17.20
14851;BMP180;7517;48.400;11.770;2022-09-29T12:52:48;95096.00;;;17.20
14851;BMP180;7517;48.400;11.770;2022-09-29T12:55:27;95100.00;;;17.20
14851;BMP180;7517;48.400;11.770;2022-09-29T12:58:01;95087.00;;;17.20
14851;BMP180;7517;48.400;11.770;2022-09-29T13:00:34;95090.00;;;17.20
14851;BMP180;7517;48.400;11.770;2022-09-29T13:06:48;95098.00;;;17.30
14851;BMP180;7517;48.400;11.770;2022-09-29T13:09:46;95091.00;;;17.40
14851;BMP180;7517;48.400;11.770;2022-09-29T13:12:51;95097.00;;;17.40
14851;BMP180;7517;48.400;11.770;2022-09-29T13:15:37;95092.00;;;17.50
14851;BMP180;7517;48.400;11.770;2022-09-29T13:21:38;95100.00;;;17.50
14851;BMP180;7517;48.400;11.770;2022-09-29T13:24:35;95099.00;;;17.60
14851;BMP180;7517;48.400;11.770;2022-09-29T13:27:27;95097.00;;;17.60
14851;BMP180;7517;48.400;11.770;2022-09-29T13:30:03;95096.00;;;17.60
14851;BMP180;7517;48.400;11.770;2022-09-29T13:32:37;95093.00;;;17.60
14851;BMP180;7517;48.400;11.770;2022-09-29T13:35:13;95103.00;;;17.60
14851;BMP180;7517;48.400;11.770;2022-09-29T13:37:49;95109.00;;;17.60
14851;BMP180;7517;48.400;11.770;2022-09-29T13:40:23;95112.00;;;17.60
14851;BMP180;7517;48.400;11.770;2022-09-29T13:42:54;95113.00;;;17.60
14851;BMP180;7517;48.400;11.770;2022-09-29T13:45:41;95112.00;;;17.60
14851;BMP180;7517;48.400;11.770;2022-09-29T13:48:35;95105.00;;;17.50
14851;BMP180;7517;48.400;11.770;2022-09-29T13:51:39;95113.00;;;17.50
14851;BMP180;7517;48.400;11.770;2022-09-29T13:54:33;95115.00;;;17.50
14851;BMP180;7517;48.400;11.770;2022-09-29T13:57:18;95112.00;;;17.50
14851;BMP180;7517;48.400;11.770;2022-09-29T14:03:31;95129.00;;;17.50
14851;BMP180;7517;48.400;11.770;2022-09-29T14:06:13;95129.00;;;17.50
14851;BMP180;7517;48.400;11.770;2022-09-29T14:08:45;95125.00;;;17.50
14851;BMP180;7517;48.400;11.770;2022-09-29T14:11:27;95134.00;;;17.40
14851;BMP180;7517;48.400;11.770;2022-09-29T14:14:04;95132.00;;;17.40
14851;BMP180;7517;48.400;11.770;2022-09-29T14:16:53;95137.00;;;17.40
14851;BMP180;7517;48.400;11.770;2022-09-29T14:19:42;95134.00;;;17.40
14851;BMP180;7517;48.400;11.770;2022-09-29T14:22:54;95145.00;;;17.30
14851;BMP180;7517;48.400;11.770;2022-09-29T14:25:51;95148.00;;;17.30
14851;BMP180;7517;48.400;11.770;2022-09-29T14:28:33;95145.00;;;17.20
14851;BMP180;7517;48.400;11.770;2022-09-29T14:31:04;95147.00;;;17.20
14851;BMP180;7517;48.400;11.770;2022-09-29T14:33:43;95152.00;;;17.10
14851;BMP180;7517;48.400;11.770;2022-09-29T14:36:15;95150.00;;;17.10
14851;BMP180;7517;48.400;11.770;2022-09-29T14:38:46;95152.00;;;17.00
14851;BMP180;7517;48.400;11.770;2022-09-29T14:41:26;95159.00;;;17.00
14851;BMP180;7517;48.400;11.770;2022-09-29T14:44:03;95170.00;;;17.00
14851;BMP180;7517;48.400;11.770;2022-09-29T14:47:09;95174.00;;;16.90
14851;BMP180;7517;48.400;11.770;2022-09-29T14:50:29;95176.00;;;16.80
14851;BMP180;7517;48.400;11.770;2022-09-29T14:53:53;95176.00;;;16.80
14851;BMP180;7517;48.400;11.770;2022-09-29T14:56:51;95181.00;;;16.80
14851;BMP180;7517;48.400;11.770;2022-09-29T14:59:43;95179.00;;;16.70
14851;BMP180;7517;48.400;11.770;2022-09-29T15:02:24;95179.00;;;16.70
14851;BMP180;7517;48.400;11.770;2022-09-29T15:04:54;95187.00;;;16.70
14851;BMP180;7517;48.400;11.770;2022-09-29T15:07:27;95184.00;;;16.60
14851;BMP180;7517;48.400;11.770;2022-09-29T15:09:59;95181.00;;;16.60
14851;BMP180;7517;48.400;11.770;2022-09-29T15:12:29;95194.00;;;16.60
14851;BMP180;7517;48.400;11.770;2022-09-29T15:14:58;95177.00;;;16.60
14851;BMP180;7517;48.400;11.770;2022-09-29T15:17:43;95185.00;;;16.60
14851;BMP180;7517;48.400;11.770;2022-09-29T15:20:21;95182.00;;;16.60
14851;BMP180;7517;48.400;11.770;2022-09-29T15:23:10;95186.00;;;16.50